createdAt,value
2018-09-28T00:00:58.701Z,22.51
2018-09-28T00:01:58.659Z,22.55
2018-09-28T00:02:58.646Z,22.54
2018-09-28T00:03:58.586Z,22.48
2018-09-28T00:04:58.523Z,22.45
2018-09-28T00:05:58.495Z,22.33
2018-09-28T00:06:58.425Z,22.35
2018-09-28T00:07:58.377Z,22.36
2018-09-28T00:08:58.356Z,22.47
2018-09-28T00:09:58.303Z,22.41
2018-09-28T00:10:58.255Z,22.54
2018-09-28T00:11:58.217Z,22.38
2018-09-28T00:12:58.177Z,22.39
2018-09-28T00:13:58.120Z,22.44
2018-09-28T00:14:58.090Z,22.45
2018-09-28T00:15:58.034Z,22.47
2018-09-28T00:16:57.990Z,22.53
2018-09-28T00:17:57.929Z,22.41
2018-09-28T00:18:57.889Z,22.36
2018-09-28T00:19:57.833Z,22.43
2018-09-28T00:20:57.793Z,22.35
2018-09-28T00:21:57.740Z,22.32
2018-09-28T00:22:57.709Z,22.36
2018-09-28T00:23:57.658Z,22.41
2018-09-28T00:24:57.617Z,22.41
2018-09-28T00:25:57.638Z,22.33
2018-09-28T00:26:57.527Z,22.32
2018-09-28T00:27:57.477Z,22.33
2018-09-28T00:28:57.422Z,22.30
2018-09-28T00:29:57.385Z,22.25
2018-09-28T00:30:57.347Z,22.33
2018-09-28T00:31:57.307Z,22.32
2018-09-28T00:32:57.255Z,22.36
2018-09-28T00:33:57.208Z,22.29
2018-09-28T00:34:57.170Z,22.41
2018-09-28T00:35:57.156Z,22.39
2018-09-28T00:36:57.075Z,22.41
2018-09-28T00:37:57.029Z,22.32
2018-09-28T00:38:56.985Z,22.39
2018-09-28T00:39:56.948Z,22.45
2018-09-28T00:40:56.899Z,22.55
2018-09-28T00:41:56.848Z,22.54
2018-09-28T00:42:56.794Z,22.53
2018-09-28T00:43:56.783Z,22.65
2018-09-28T00:44:56.714Z,22.59
2018-09-28T00:45:56.665Z,22.63
2018-09-28T00:46:56.632Z,22.68
2018-09-28T00:47:56.566Z,22.62
2018-09-28T00:48:56.520Z,22.70
2018-09-28T00:49:56.487Z,22.68
2018-09-28T00:50:56.441Z,22.76
2018-09-28T00:51:56.386Z,22.76
2018-09-28T00:52:56.358Z,22.66
2018-09-28T00:53:56.316Z,22.81
2018-09-28T00:54:56.260Z,22.75
2018-09-28T00:55:56.220Z,22.73
2018-09-28T00:56:56.173Z,22.85
2018-09-28T00:57:56.141Z,22.83
2018-09-28T00:58:56.088Z,22.87
2018-09-28T00:59:56.023Z,22.84
2018-09-28T01:00:56.002Z,22.84
2018-09-28T01:01:55.962Z,22.70
2018-09-28T01:02:55.905Z,22.73
2018-09-28T01:03:55.914Z,22.81
2018-09-28T01:04:55.797Z,22.78
2018-09-28T01:05:55.757Z,22.87
2018-09-28T01:06:55.707Z,22.87
2018-09-28T01:07:55.681Z,22.85
2018-09-28T01:08:55.628Z,22.73
2018-09-28T01:09:55.621Z,22.70
2018-09-28T01:10:55.542Z,22.78
2018-09-28T01:11:55.499Z,22.68
2018-09-28T01:12:55.439Z,22.68
2018-09-28T01:13:55.391Z,22.66
2018-09-28T01:14:55.344Z,22.62
2018-09-28T01:15:55.316Z,22.69
2018-09-28T01:16:55.262Z,22.66
2018-09-28T01:17:55.227Z,22.62
2018-09-28T01:18:55.189Z,22.66
2018-09-28T01:19:55.132Z,22.68
2018-09-28T01:20:55.099Z,22.66
2018-09-28T01:21:55.058Z,22.62
2018-09-28T01:22:54.995Z,22.66
2018-09-28T01:23:54.951Z,22.54
2018-09-28T01:24:54.903Z,22.57
2018-09-28T01:25:54.871Z,22.48
2018-09-28T01:26:54.820Z,22.45
2018-09-28T01:27:54.777Z,22.39
2018-09-28T01:28:54.744Z,22.54
2018-09-28T01:29:54.680Z,22.50
2018-09-28T01:30:54.636Z,22.53
2018-09-28T01:31:54.590Z,22.54
2018-09-28T01:32:54.548Z,22.54
2018-09-28T01:33:54.481Z,22.55
2018-09-28T01:34:54.454Z,22.54
2018-09-28T01:35:54.396Z,22.59
2018-09-28T01:36:54.364Z,22.51
2018-09-28T01:37:54.307Z,22.65
2018-09-28T01:38:54.271Z,22.69
2018-09-28T01:39:54.228Z,22.70
2018-09-28T01:40:54.188Z,22.69
2018-09-28T01:41:54.132Z,22.69
2018-09-28T01:42:54.097Z,22.69
2018-09-28T01:43:54.046Z,22.70
2018-09-28T01:44:53.991Z,22.70
2018-09-28T01:45:53.963Z,22.70
2018-09-28T01:46:53.909Z,22.76
2018-09-28T01:47:53.880Z,22.76
2018-09-28T01:48:53.828Z,22.81
2018-09-28T01:49:53.777Z,22.81
2018-09-28T01:50:53.731Z,22.72
2018-09-28T01:51:53.691Z,22.76
2018-09-28T01:52:53.654Z,22.72
2018-09-28T01:53:53.613Z,22.73
2018-09-28T01:54:53.546Z,22.69
2018-09-28T01:55:53.501Z,22.65
2018-09-28T01:56:53.464Z,22.63
2018-09-28T01:57:53.444Z,22.54
2018-09-28T01:58:53.382Z,22.55
2018-09-28T01:59:53.349Z,22.54
2018-09-28T02:00:53.268Z,22.50
2018-09-28T02:01:53.234Z,22.55
2018-09-28T02:02:53.189Z,22.51
2018-09-28T02:03:53.135Z,22.54
2018-09-28T02:04:53.107Z,22.57
2018-09-28T02:05:53.049Z,22.54
2018-09-28T02:06:52.998Z,22.51
2018-09-28T02:07:52.957Z,22.41
2018-09-28T02:08:52.918Z,22.23
2018-09-28T02:09:52.860Z,22.22
2018-09-28T02:10:52.856Z,22.28
2018-09-28T02:11:52.789Z,22.25
2018-09-28T02:12:52.738Z,22.29
2018-09-28T02:13:52.684Z,22.25
2018-09-28T02:14:52.656Z,22.32
2018-09-28T02:15:52.645Z,22.30
2018-09-28T02:16:52.550Z,22.32
2018-09-28T02:17:52.499Z,22.38
2018-09-28T02:18:52.463Z,22.35
2018-09-28T02:19:52.405Z,22.33
2018-09-28T02:20:52.363Z,22.30
2018-09-28T02:21:52.335Z,22.25
2018-09-28T02:22:52.295Z,22.33
2018-09-28T02:23:52.222Z,22.32
2018-09-28T02:24:52.192Z,22.30
2018-09-28T02:25:52.175Z,22.23
2018-09-28T02:26:52.109Z,22.36
2018-09-28T02:27:52.067Z,22.28
2018-09-28T02:28:52.007Z,22.26
2018-09-28T02:29:51.964Z,22.36
2018-09-28T02:30:51.928Z,22.32
2018-09-28T02:31:51.886Z,22.33
2018-09-28T02:32:51.834Z,22.38
2018-09-28T02:33:51.797Z,22.33
2018-09-28T02:34:51.728Z,22.41
2018-09-28T02:35:51.723Z,22.35
2018-09-28T02:36:51.653Z,22.29
2018-09-28T02:37:51.593Z,22.29
2018-09-28T02:38:51.580Z,22.39
2018-09-28T02:39:51.525Z,22.39
2018-09-28T02:40:51.465Z,22.50
2018-09-28T02:41:51.413Z,22.36
2018-09-28T02:42:51.385Z,22.45
2018-09-28T02:43:51.329Z,22.36
2018-09-28T02:44:51.282Z,22.38
2018-09-28T02:45:51.243Z,22.36
2018-09-28T02:46:51.210Z,22.32
2018-09-28T02:47:51.159Z,22.33
2018-09-28T02:48:51.103Z,22.32
2018-09-28T02:49:51.057Z,22.30
2018-09-28T02:50:51.023Z,22.22
2018-09-28T02:51:50.965Z,22.33
2018-09-28T02:52:50.925Z,22.22
2018-09-28T02:53:50.887Z,22.29
2018-09-28T02:54:50.831Z,22.32
2018-09-28T02:55:50.805Z,22.23
2018-09-28T02:56:50.830Z,22.25
2018-09-28T02:57:50.703Z,22.26
2018-09-28T02:58:50.654Z,22.26
2018-09-28T02:59:50.607Z,22.33
2018-09-28T03:00:50.565Z,22.35
2018-09-28T03:01:50.536Z,22.39
2018-09-28T03:02:50.480Z,22.43
2018-09-28T03:03:50.439Z,22.44
2018-09-28T03:04:50.372Z,22.18
2018-09-28T03:05:50.355Z,22.02
2018-09-28T03:06:50.292Z,22.00
2018-09-28T03:07:50.248Z,22.00
2018-09-28T03:08:50.210Z,22.00
2018-09-28T03:09:50.154Z,22.07
2018-09-28T03:10:50.118Z,22.11
2018-09-28T03:11:50.053Z,22.11
2018-09-28T03:12:50.042Z,22.10
2018-09-28T03:13:49.984Z,22.08
2018-09-28T03:14:49.946Z,21.93
2018-09-28T03:15:49.885Z,21.73
2018-09-28T03:16:49.838Z,21.92
2018-09-28T03:17:49.795Z,21.89
2018-09-28T03:18:49.753Z,21.91
2018-09-28T03:19:49.728Z,22.04
2018-09-28T03:20:49.689Z,21.93
2018-09-28T03:21:49.604Z,21.98
2018-09-28T03:22:49.565Z,21.92
2018-09-28T03:23:49.525Z,21.99
2018-09-28T03:24:49.480Z,21.98
2018-09-28T03:25:49.463Z,22.06
2018-09-28T03:26:49.386Z,22.08
2018-09-28T03:27:49.334Z,22.11
2018-09-28T03:28:49.298Z,22.08
2018-09-28T03:29:49.261Z,22.07
2018-09-28T03:30:49.201Z,22.13
2018-09-28T03:31:49.150Z,22.25
2018-09-28T03:32:49.115Z,22.22
2018-09-28T03:33:49.056Z,22.17
2018-09-28T03:34:49.013Z,22.29
2018-09-28T03:35:48.966Z,22.22
2018-09-28T03:36:48.924Z,22.23
2018-09-28T03:37:48.886Z,22.22
2018-09-28T03:38:48.857Z,22.20
2018-09-28T03:39:48.788Z,22.22
2018-09-28T03:40:48.757Z,22.07
2018-09-28T03:41:48.709Z,22.11
2018-09-28T03:42:48.645Z,22.13
2018-09-28T03:43:48.613Z,22.15
2018-09-28T03:44:48.577Z,22.08
2018-09-28T03:45:48.539Z,22.07
2018-09-28T03:46:48.494Z,22.10
2018-09-28T03:47:48.425Z,22.07
2018-09-28T03:48:48.373Z,22.06
2018-09-28T03:49:48.347Z,22.13
2018-09-28T03:50:48.310Z,22.13
2018-09-28T03:51:48.257Z,22.02
2018-09-28T03:52:48.193Z,22.14
2018-09-28T03:53:48.147Z,22.00
2018-09-28T03:54:48.121Z,22.06
2018-09-28T03:55:48.092Z,22.04
2018-09-28T03:56:48.020Z,22.00
2018-09-28T03:57:47.977Z,21.99
2018-09-28T03:58:47.938Z,21.99
2018-09-28T03:59:47.875Z,22.00
2018-09-28T04:00:47.901Z,22.00
2018-09-28T04:01:47.796Z,21.99
2018-09-28T04:02:47.788Z,21.92
2018-09-28T04:03:47.697Z,21.89
2018-09-28T04:04:47.660Z,21.89
2018-09-28T04:05:47.618Z,21.98
2018-09-28T04:06:47.578Z,21.92
2018-09-28T04:07:47.523Z,21.88
2018-09-28T04:08:47.481Z,21.89
2018-09-28T04:09:47.433Z,21.91
2018-09-28T04:10:47.384Z,21.88
2018-09-28T04:11:47.330Z,21.79
2018-09-28T04:12:47.295Z,21.76
2018-09-28T04:13:47.252Z,21.89
2018-09-28T04:14:47.204Z,21.91
2018-09-28T04:15:47.167Z,21.80
2018-09-28T04:16:47.118Z,21.79
2018-09-28T04:17:47.057Z,21.77
2018-09-28T04:18:47.017Z,21.79
2018-09-28T04:19:46.975Z,21.79
2018-09-28T04:20:46.936Z,21.82
2018-09-28T04:21:46.950Z,21.77
2018-09-28T04:22:46.841Z,21.79
2018-09-28T04:23:46.788Z,21.75
2018-09-28T04:24:46.737Z,21.77
2018-09-28T04:25:46.695Z,21.76
2018-09-28T04:26:46.667Z,21.77
2018-09-28T04:27:46.608Z,21.79
2018-09-28T04:28:46.569Z,21.79
2018-09-28T04:29:46.528Z,21.73
2018-09-28T04:30:46.511Z,21.73
2018-09-28T04:31:46.450Z,21.73
2018-09-28T04:32:46.420Z,21.67
2018-09-28T04:33:46.334Z,21.72
2018-09-28T04:34:46.318Z,21.61
2018-09-28T04:35:46.253Z,21.62
2018-09-28T04:36:46.185Z,21.73
2018-09-28T04:37:46.208Z,21.72
2018-09-28T04:38:46.110Z,21.73
2018-09-28T04:39:46.055Z,21.76
2018-09-28T04:40:46.059Z,21.69
2018-09-28T04:41:45.980Z,21.69
2018-09-28T04:42:45.930Z,21.69
2018-09-28T04:43:45.882Z,21.76
2018-09-28T04:44:45.845Z,21.77
2018-09-28T04:45:45.834Z,21.76
2018-09-28T04:46:45.742Z,21.75
2018-09-28T04:47:45.696Z,21.73
2018-09-28T04:48:45.652Z,21.77
2018-09-28T04:49:45.627Z,21.83
2018-09-28T04:50:45.590Z,21.75
2018-09-28T04:51:45.530Z,21.83
2018-09-28T04:52:45.468Z,21.83
2018-09-28T04:53:45.436Z,21.76
2018-09-28T04:54:45.387Z,21.67
2018-09-28T04:55:45.335Z,21.66
2018-09-28T04:56:45.290Z,21.67
2018-09-28T04:57:45.248Z,21.55
2018-09-28T04:58:45.209Z,21.57
2018-09-28T04:59:45.137Z,21.61
2018-09-28T05:00:45.125Z,21.66
2018-09-28T05:01:45.063Z,21.61
2018-09-28T05:02:45.035Z,21.61
2018-09-28T05:03:44.971Z,21.72
2018-09-28T05:04:44.934Z,21.61
2018-09-28T05:05:44.868Z,21.62
2018-09-28T05:06:44.840Z,21.64
2018-09-28T05:07:44.794Z,21.62
2018-09-28T05:08:44.735Z,21.69
2018-09-28T05:09:44.695Z,21.64
2018-09-28T05:10:44.657Z,21.69
2018-09-28T05:11:44.605Z,21.55
2018-09-28T05:12:44.579Z,21.60
2018-09-28T05:13:44.519Z,21.57
2018-09-28T05:14:44.485Z,21.66
2018-09-28T05:15:44.418Z,21.67
2018-09-28T05:16:44.366Z,21.67
2018-09-28T05:17:44.317Z,21.58
2018-09-28T05:18:44.288Z,21.43
2018-09-28T05:19:44.237Z,21.48
2018-09-28T05:20:44.202Z,21.37
2018-09-28T05:21:44.159Z,21.25
2018-09-28T05:22:44.132Z,21.35
2018-09-28T05:23:44.049Z,21.29
2018-09-28T05:24:44.028Z,21.27
2018-09-28T05:25:43.983Z,21.25
2018-09-28T05:26:43.921Z,21.36
2018-09-28T05:27:43.879Z,21.45
2018-09-28T05:28:43.823Z,21.51
2018-09-28T05:29:43.788Z,21.50
2018-09-28T05:30:44.968Z,21.43
2018-09-28T05:31:43.895Z,21.52
2018-09-28T05:32:43.781Z,21.43
2018-09-28T05:33:43.611Z,21.50
2018-09-28T05:34:43.552Z,21.52
2018-09-28T05:35:43.512Z,21.33
2018-09-28T05:36:43.457Z,21.32
2018-09-28T05:37:43.412Z,21.42
2018-09-28T05:38:43.383Z,21.36
2018-09-28T05:39:43.337Z,21.32
2018-09-28T05:40:43.276Z,21.37
2018-09-28T05:41:43.222Z,21.42
2018-09-28T05:42:43.180Z,21.46
2018-09-28T05:43:43.232Z,21.42
2018-09-28T05:44:43.115Z,21.35
2018-09-28T05:45:43.060Z,21.36
2018-09-28T05:46:43.014Z,21.30
2018-09-28T05:47:42.970Z,21.27
2018-09-28T05:48:42.916Z,21.22
2018-09-28T05:49:42.886Z,21.24
2018-09-28T05:50:42.829Z,21.11
2018-09-28T05:51:42.765Z,21.15
2018-09-28T05:52:42.739Z,21.20
2018-09-28T05:53:42.713Z,21.22
2018-09-28T05:54:42.644Z,21.20
2018-09-28T05:55:42.583Z,21.24
2018-09-28T05:56:42.536Z,21.15
2018-09-28T05:57:42.500Z,21.03
2018-09-28T05:58:42.546Z,20.99
2018-09-28T05:59:42.438Z,20.90
2018-09-28T06:00:42.366Z,20.90
2018-09-28T06:01:42.313Z,20.97
2018-09-28T06:02:42.298Z,20.95
2018-09-28T06:03:42.249Z,20.93
2018-09-28T06:04:42.192Z,20.90
2018-09-28T06:05:42.130Z,20.96
2018-09-28T06:06:42.076Z,21.00
2018-09-28T06:07:42.068Z,20.92
2018-09-28T06:08:41.992Z,20.99
2018-09-28T06:09:41.952Z,20.99
2018-09-28T06:10:41.897Z,20.90
2018-09-28T06:11:41.867Z,20.97
2018-09-28T06:12:41.818Z,21.02
2018-09-28T06:13:41.762Z,20.99
2018-09-28T06:14:41.714Z,21.06
2018-09-28T06:15:41.682Z,21.07
2018-09-28T06:16:41.629Z,21.02
2018-09-28T06:17:41.584Z,21.03
2018-09-28T06:18:41.545Z,21.06
2018-09-28T06:19:41.493Z,21.06
2018-09-28T06:20:41.454Z,20.99
2018-09-28T06:21:41.398Z,21.17
2018-09-28T06:22:41.342Z,21.06
2018-09-28T06:23:41.312Z,21.14
2018-09-28T06:24:41.277Z,21.09
2018-09-28T06:25:41.223Z,21.03
2018-09-28T06:26:41.202Z,21.00
2018-09-28T06:27:41.118Z,21.06
2018-09-28T06:28:41.079Z,20.99
2018-09-28T06:29:41.084Z,21.12
2018-09-28T06:30:40.990Z,20.97
2018-09-28T06:31:40.958Z,21.02
2018-09-28T06:32:40.886Z,21.09
2018-09-28T06:33:40.849Z,20.92
2018-09-28T06:34:40.813Z,21.03
2018-09-28T06:35:40.757Z,20.95
2018-09-28T06:36:40.724Z,20.96
2018-09-28T06:37:40.681Z,20.99
2018-09-28T06:38:40.603Z,20.95
2018-09-28T06:39:40.573Z,20.93
2018-09-28T06:40:40.552Z,21.09
2018-09-28T06:41:40.534Z,20.96
2018-09-28T06:42:40.425Z,20.96
2018-09-28T06:43:40.400Z,20.93
2018-09-28T06:44:40.372Z,20.92
2018-09-28T06:45:40.287Z,21.00
2018-09-28T06:46:40.240Z,20.92
2018-09-28T06:47:40.228Z,20.87
2018-09-28T06:48:40.149Z,20.97
2018-09-28T06:49:40.112Z,20.97
2018-09-28T06:50:40.081Z,21.03
2018-09-28T06:51:40.011Z,20.96
2018-09-28T06:52:39.976Z,20.92
2018-09-28T06:53:39.951Z,20.99
2018-09-28T06:54:39.902Z,21.02
2018-09-28T06:55:39.848Z,21.02
2018-09-28T06:56:39.790Z,20.90
2018-09-28T06:57:39.750Z,20.96
2018-09-28T06:58:39.713Z,20.95
2018-09-28T06:59:39.702Z,20.92
2018-09-28T07:00:39.613Z,20.93
2018-09-28T07:01:39.573Z,20.93
2018-09-28T07:02:39.523Z,20.93
2018-09-28T07:03:39.460Z,20.90
2018-09-28T07:04:39.413Z,20.90
2018-09-28T07:05:39.399Z,20.97
2018-09-28T07:06:39.324Z,20.97
2018-09-28T07:07:39.315Z,21.00
2018-09-28T07:08:39.241Z,20.96
2018-09-28T07:09:39.221Z,21.07
2018-09-28T07:10:39.164Z,20.92
2018-09-28T07:11:39.112Z,20.99
2018-09-28T07:12:39.042Z,20.97
2018-09-28T07:13:39.026Z,20.95
2018-09-28T07:14:38.986Z,20.78
2018-09-28T07:15:38.921Z,20.90
2018-09-28T07:16:38.931Z,20.77
2018-09-28T07:17:38.859Z,20.82
2018-09-28T07:18:38.776Z,20.77
2018-09-28T07:19:38.734Z,20.84
2018-09-28T07:20:38.715Z,20.78
2018-09-28T07:21:38.643Z,20.80
2018-09-28T07:22:38.597Z,20.81
2018-09-28T07:23:38.548Z,20.81
2018-09-28T07:24:38.556Z,20.95
2018-09-28T07:25:38.458Z,20.87
2018-09-28T07:26:38.445Z,20.88
2018-09-28T07:27:38.361Z,21.02
2018-09-28T07:28:38.316Z,20.95
2018-09-28T07:29:38.265Z,20.95
2018-09-28T07:30:38.237Z,20.95
2018-09-28T07:31:38.205Z,20.93
2018-09-28T07:32:38.144Z,21.07
2018-09-28T07:33:38.098Z,20.95
2018-09-28T07:34:38.039Z,21.11
2018-09-28T07:35:38.029Z,20.95
2018-09-28T07:36:38.095Z,20.96
2018-09-28T07:37:37.896Z,21.00
2018-09-28T07:38:37.856Z,21.03
2018-09-28T07:39:37.810Z,20.93
2018-09-28T07:40:37.765Z,21.00
2018-09-28T07:41:37.727Z,20.93
2018-09-28T07:42:37.668Z,20.95
2018-09-28T07:43:37.628Z,20.87
2018-09-28T07:44:37.603Z,20.92
2018-09-28T07:45:37.549Z,20.93
2018-09-28T07:46:37.478Z,20.93
2018-09-28T07:47:37.436Z,20.85
2018-09-28T07:48:37.398Z,20.87
2018-09-28T07:49:37.358Z,20.92
2018-09-28T07:50:37.308Z,20.81
2018-09-28T07:51:37.276Z,20.82
2018-09-28T07:52:37.212Z,20.99
2018-09-28T07:53:37.171Z,20.92
2018-09-28T07:54:37.131Z,20.95
2018-09-28T07:55:37.088Z,20.92
2018-09-28T07:56:37.030Z,20.78
2018-09-28T07:57:36.989Z,21.00
2018-09-28T07:58:36.963Z,20.85
2018-09-28T07:59:36.924Z,20.87
2018-09-28T08:00:36.840Z,20.90
2018-09-28T08:01:36.801Z,20.88
2018-09-28T08:02:36.770Z,20.87
2018-09-28T08:03:36.716Z,20.85
2018-09-28T08:04:36.668Z,20.82
2018-09-28T08:05:36.628Z,20.92
2018-09-28T08:06:36.592Z,20.82
2018-09-28T08:07:36.532Z,20.85
2018-09-28T08:08:36.504Z,20.87
2018-09-28T08:09:36.437Z,20.99
2018-09-28T08:10:36.387Z,20.93
2018-09-28T08:11:36.349Z,20.92
2018-09-28T08:12:36.319Z,20.87
2018-09-28T08:13:36.256Z,20.82
2018-09-28T08:14:36.195Z,20.85
2018-09-28T08:15:36.152Z,20.77
2018-09-28T08:16:36.134Z,20.75
2018-09-28T08:17:36.080Z,20.78
2018-09-28T08:18:36.048Z,20.80
2018-09-28T08:19:35.996Z,20.80
2018-09-28T08:20:35.917Z,20.78
2018-09-28T08:21:35.893Z,20.81
2018-09-28T08:22:35.840Z,20.84
2018-09-28T08:23:35.800Z,20.84
2018-09-28T08:24:35.783Z,20.88
2018-09-28T08:25:35.744Z,20.84
2018-09-28T08:26:35.670Z,20.84
2018-09-28T08:27:35.631Z,20.85
2018-09-28T08:28:35.556Z,20.72
2018-09-28T08:29:35.520Z,20.78
2018-09-28T08:30:35.530Z,20.84
2018-09-28T08:31:35.450Z,20.80
2018-09-28T08:32:35.380Z,20.81
2018-09-28T08:33:35.340Z,20.72
2018-09-28T08:34:35.293Z,20.69
2018-09-28T08:35:35.241Z,20.69
2018-09-28T08:36:35.301Z,20.63
2018-09-28T08:37:35.205Z,20.69
2018-09-28T08:38:35.104Z,20.65
2018-09-28T08:39:35.067Z,20.55
2018-09-28T08:40:35.036Z,20.59
2018-09-28T08:41:34.979Z,20.62
2018-09-28T08:42:34.916Z,20.60
2018-09-28T08:43:34.920Z,20.60
2018-09-28T08:44:34.823Z,20.58
2018-09-28T08:45:34.768Z,20.69
2018-09-28T08:46:34.734Z,20.56
2018-09-28T08:47:34.695Z,20.62
2018-09-28T08:48:34.649Z,20.59
2018-09-28T08:49:34.598Z,20.63
2018-09-28T08:50:34.547Z,20.58
2018-09-28T08:51:34.508Z,20.60
2018-09-28T08:52:34.457Z,20.66
2018-09-28T08:53:34.420Z,20.74
2018-09-28T08:54:34.362Z,20.63
2018-09-28T08:55:34.335Z,20.69
2018-09-28T08:56:34.293Z,20.60
2018-09-28T08:57:34.255Z,20.65
2018-09-28T08:58:34.188Z,20.67
2018-09-28T08:59:34.145Z,20.65
2018-09-28T09:00:34.116Z,20.67
2018-09-28T09:01:34.045Z,20.67
2018-09-28T09:02:33.986Z,20.66
2018-09-28T09:03:33.970Z,20.77
2018-09-28T09:04:33.907Z,20.78
2018-09-28T09:05:33.845Z,20.72
2018-09-28T09:06:33.815Z,20.80
2018-09-28T09:07:33.776Z,20.78
2018-09-28T09:08:33.718Z,20.84
2018-09-28T09:09:33.693Z,20.81
2018-09-28T09:10:33.636Z,20.88
2018-09-28T09:11:33.580Z,20.81
2018-09-28T09:12:33.538Z,20.72
2018-09-28T09:13:33.487Z,20.66
2018-09-28T09:14:33.459Z,20.67
2018-09-28T09:15:33.391Z,20.75
2018-09-28T09:16:33.361Z,20.77
2018-09-28T09:17:33.297Z,20.81
2018-09-28T09:18:33.267Z,20.82
2018-09-28T09:19:33.223Z,20.75
2018-09-28T09:20:33.175Z,20.72
2018-09-28T09:21:33.124Z,20.65
2018-09-28T09:22:33.085Z,20.69
2018-09-28T09:23:33.031Z,20.69
2018-09-28T09:24:32.987Z,20.60
2018-09-28T09:25:32.943Z,20.62
2018-09-28T09:26:32.900Z,20.59
2018-09-28T09:27:32.860Z,20.67
2018-09-28T09:28:32.806Z,20.75
2018-09-28T09:29:32.761Z,20.70
2018-09-28T09:30:32.712Z,20.75
2018-09-28T09:31:32.671Z,20.65
2018-09-28T09:32:32.636Z,20.69
2018-09-28T09:33:32.583Z,20.67
2018-09-28T09:34:32.533Z,20.67
2018-09-28T09:35:32.479Z,20.69
2018-09-28T09:36:32.478Z,20.60
2018-09-28T09:37:32.396Z,20.60
2018-09-28T09:38:32.343Z,20.51
2018-09-28T09:39:32.322Z,20.52
2018-09-28T09:40:32.261Z,20.70
2018-09-28T09:41:32.230Z,20.48
2018-09-28T09:42:32.185Z,20.52
2018-09-28T09:43:32.111Z,20.62
2018-09-28T09:44:32.075Z,20.65
2018-09-28T09:45:32.019Z,20.66
2018-09-28T09:46:31.981Z,20.70
2018-09-28T09:47:31.922Z,20.65
2018-09-28T09:48:31.924Z,20.65
2018-09-28T09:49:31.842Z,20.62
2018-09-28T09:50:31.808Z,20.52
2018-09-28T09:51:31.755Z,20.59
2018-09-28T09:52:31.730Z,20.58
2018-09-28T09:53:31.655Z,20.56
2018-09-28T09:54:31.614Z,20.55
2018-09-28T09:55:31.548Z,20.48
2018-09-28T09:56:31.529Z,20.56
2018-09-28T09:57:31.466Z,20.51
2018-09-28T09:58:31.428Z,20.55
2018-09-28T09:59:31.380Z,20.50
2018-09-28T10:00:31.330Z,20.47
2018-09-28T10:01:31.273Z,20.55
2018-09-28T10:02:31.238Z,20.58
2018-09-28T10:03:31.205Z,20.63
2018-09-28T10:04:31.151Z,20.69
2018-09-28T10:05:31.103Z,20.69
2018-09-28T10:06:31.055Z,20.70
2018-09-28T10:07:31.022Z,20.74
2018-09-28T10:08:31.005Z,20.84
2018-09-28T10:09:30.958Z,20.84
2018-09-28T10:10:30.876Z,20.82
2018-09-28T10:11:30.831Z,20.77
2018-09-28T10:12:30.942Z,20.81
2018-09-28T10:13:30.740Z,20.80
2018-09-28T10:14:30.687Z,20.81
2018-09-28T10:15:30.639Z,21.00
2018-09-28T10:16:30.589Z,21.00
2018-09-28T10:17:30.539Z,21.00
2018-09-28T10:18:30.521Z,20.95
2018-09-28T10:19:30.478Z,20.93
2018-09-28T10:20:30.421Z,20.87
2018-09-28T10:21:30.390Z,20.99
2018-09-28T10:22:30.336Z,20.97
2018-09-28T10:23:30.296Z,20.95
2018-09-28T10:24:30.224Z,20.87
2018-09-28T10:25:30.182Z,20.78
2018-09-28T10:26:30.131Z,20.77
2018-09-28T10:27:30.352Z,20.75
2018-09-28T10:28:30.058Z,20.72
2018-09-28T10:29:30.003Z,20.67
2018-09-28T10:30:29.978Z,20.77
2018-09-28T10:31:29.910Z,20.67
2018-09-28T10:32:29.854Z,20.74
2018-09-28T10:33:29.824Z,20.75
2018-09-28T10:34:29.774Z,20.80
2018-09-28T10:35:29.710Z,20.87
2018-09-28T10:36:29.675Z,20.88
2018-09-28T10:37:29.628Z,20.90
2018-09-28T10:38:29.612Z,20.99
2018-09-28T10:39:29.573Z,21.06
2018-09-28T10:40:29.661Z,21.03
2018-09-28T10:41:29.450Z,21.17
2018-09-28T10:42:29.401Z,21.18
2018-09-28T10:43:29.355Z,21.12
2018-09-28T10:44:29.318Z,21.14
2018-09-28T10:45:29.383Z,21.18
2018-09-28T10:46:29.234Z,21.15
2018-09-28T10:47:29.179Z,21.11
2018-09-28T10:48:29.151Z,21.18
2018-09-28T10:49:29.080Z,21.07
2018-09-28T10:50:29.052Z,21.14
2018-09-28T10:51:29.076Z,21.11
2018-09-28T10:52:29.001Z,21.24
2018-09-28T10:53:28.898Z,21.21
2018-09-28T10:54:28.861Z,21.22
2018-09-28T10:55:28.797Z,21.14
2018-09-28T10:56:28.768Z,21.09
2018-09-28T10:57:28.742Z,21.11
2018-09-28T10:58:28.767Z,20.97
2018-09-28T10:59:28.626Z,20.96
2018-09-28T11:00:28.683Z,20.85
2018-09-28T11:01:28.539Z,20.82
2018-09-28T11:02:28.477Z,20.88
2018-09-28T11:03:28.481Z,20.80
2018-09-28T11:04:28.455Z,20.87
2018-09-28T11:05:28.351Z,20.82
2018-09-28T11:06:28.325Z,20.82
2018-09-28T11:07:28.258Z,20.70
2018-09-28T11:08:28.263Z,20.75
2018-09-28T11:09:28.152Z,20.78
2018-09-28T11:10:28.210Z,20.93
2018-09-28T11:11:28.063Z,20.95
2018-09-28T11:12:28.037Z,20.96
2018-09-28T11:13:28.022Z,21.02
2018-09-28T11:14:27.926Z,21.06
2018-09-28T11:15:28.004Z,21.12
2018-09-28T11:16:27.846Z,21.11
2018-09-28T11:17:27.794Z,21.02
2018-09-28T11:18:27.761Z,21.17
2018-09-28T11:19:27.726Z,21.11
2018-09-28T11:20:27.668Z,21.17
2018-09-28T11:21:27.622Z,21.14
2018-09-28T11:22:27.563Z,21.12
2018-09-28T11:23:27.544Z,21.17
2018-09-28T11:24:27.488Z,21.12
2018-09-28T11:25:27.435Z,21.22
2018-09-28T11:26:27.531Z,21.15
2018-09-28T11:27:27.359Z,21.24
2018-09-28T11:28:27.299Z,21.22
2018-09-28T11:29:27.250Z,21.24
2018-09-28T11:30:27.207Z,21.21
2018-09-28T11:31:27.165Z,21.14
2018-09-28T11:32:27.113Z,21.05
2018-09-28T11:33:27.092Z,21.09
2018-09-28T11:34:27.026Z,21.14
2018-09-28T11:35:26.968Z,21.22
2018-09-28T11:36:26.941Z,21.22
2018-09-28T11:37:26.875Z,21.24
2018-09-28T11:38:26.862Z,21.24
2018-09-28T11:39:26.881Z,21.21
2018-09-28T11:40:26.771Z,21.21
2018-09-28T11:41:26.735Z,21.25
2018-09-28T11:42:26.660Z,21.21
2018-09-28T11:43:26.637Z,21.27
2018-09-28T11:44:26.573Z,21.32
2018-09-28T11:45:26.617Z,21.30
2018-09-28T11:46:26.471Z,21.21
2018-09-28T11:47:26.435Z,21.21
2018-09-28T11:48:26.379Z,21.33
2018-09-28T11:49:26.345Z,21.32
2018-09-28T11:50:26.293Z,21.27
2018-09-28T11:51:26.315Z,21.22
2018-09-28T11:52:26.198Z,21.09
2018-09-28T11:53:26.165Z,21.07
2018-09-28T11:54:26.121Z,21.12
2018-09-28T11:55:26.053Z,21.02
2018-09-28T11:56:26.008Z,21.06
2018-09-28T11:57:26.060Z,21.05
2018-09-28T11:58:25.931Z,21.15
2018-09-28T11:59:25.866Z,21.06
2018-09-28T12:00:25.826Z,21.06
2018-09-28T12:01:25.791Z,21.06
2018-09-28T12:02:25.733Z,21.07
2018-09-28T12:03:25.731Z,21.18
2018-09-28T12:04:25.652Z,21.05
2018-09-28T12:05:25.615Z,21.00
2018-09-28T12:06:25.717Z,21.07
2018-09-28T12:07:25.530Z,21.03
2018-09-28T12:08:25.470Z,21.09
2018-09-28T12:09:25.465Z,21.11
2018-09-28T12:10:25.387Z,20.99
2018-09-28T12:11:25.333Z,21.11
2018-09-28T12:12:25.386Z,21.17
2018-09-28T12:13:25.312Z,21.12
2018-09-28T12:14:25.208Z,21.17
2018-09-28T12:15:25.208Z,21.21
2018-09-28T12:16:25.099Z,21.24
2018-09-28T12:17:25.078Z,21.12
2018-09-28T12:18:25.031Z,21.22
2018-09-28T12:19:24.956Z,21.20
2018-09-28T12:20:24.926Z,21.20
2018-09-28T12:21:24.990Z,21.27
2018-09-28T12:22:24.850Z,21.21
2018-09-28T12:23:24.779Z,21.24
2018-09-28T12:24:24.787Z,21.21
2018-09-28T12:25:24.700Z,21.20
2018-09-28T12:26:24.647Z,21.27
2018-09-28T12:27:24.716Z,21.29
2018-09-28T12:28:24.555Z,21.21
2018-09-28T12:29:24.519Z,21.27
2018-09-28T12:30:24.571Z,21.25
2018-09-28T12:31:24.435Z,21.25
2018-09-28T12:32:24.368Z,21.27
2018-09-28T12:33:24.428Z,21.36
2018-09-28T12:34:24.291Z,21.32
2018-09-28T12:35:24.277Z,21.33
2018-09-28T12:36:24.387Z,21.29
2018-09-28T12:37:24.154Z,21.29
2018-09-28T12:38:24.100Z,21.32
2018-09-28T12:39:24.068Z,21.27
2018-09-28T12:40:24.017Z,21.35
2018-09-28T12:41:23.957Z,21.39
2018-09-28T12:42:23.975Z,21.32
2018-09-28T12:43:23.879Z,21.29
2018-09-28T12:44:23.966Z,21.35
2018-09-28T12:45:23.857Z,21.33
2018-09-28T12:46:23.748Z,21.33
2018-09-28T12:47:23.695Z,21.33
2018-09-28T12:48:23.795Z,21.39
2018-09-28T12:49:23.600Z,21.43
2018-09-28T12:50:23.590Z,21.36
2018-09-28T12:51:23.505Z,21.37
2018-09-28T12:52:23.466Z,21.37